sensor_id;sensor_type;location;lat;lon;timestamp;P1;durP1;ratioP1;P2;durP2;ratioP2
68583;SDS011;55557;49.220;11.150;2023-02-23T00:01:34;5.67;;;3.90;;
68583;SDS011;55557;49.220;11.150;2023-02-23T00:04:01;6.83;;;4.40;;
68583;SDS011;55557;49.220;11.150;2023-02-23T00:06:28;7.97;;;4.77;;
68583;SDS011;55557;49.220;11.150;2023-02-23T00:08:54;6.60;;;4.73;;
68583;SDS011;55557;49.220;11.150;2023-02-23T00:11:22;7.20;;;4.60;;
68583;SDS011;55557;49.220;11.150;2023-02-23T00:13:49;5.63;;;4.30;;
68583;SDS011;55557;49.220;11.150;2023-02-23T00:16:16;6.07;;;4.37;;
68583;SDS011;55557;49.220;11.150;2023-02-23T00:18:43;7.70;;;4.93;;
68583;SDS011;55557;49.220;11.150;2023-02-23T00:21:19;6.20;;;4.13;;
68583;SDS011;55557;49.220;11.150;2023-02-23T00:23:47;8.00;;;4.90;;
68583;SDS011;55557;49.220;11.150;2023-02-23T00:26:13;5.90;;;4.17;;
68583;SDS011;55557;49.220;11.150;2023-02-23T00:28:40;9.93;;;5.77;;
68583;SDS011;55557;49.220;11.150;2023-02-23T00:31:07;7.43;;;4.70;;
68583;SDS011;55557;49.220;11.150;2023-02-23T00:33:33;5.57;;;4.40;;
68583;SDS011;55557;49.220;11.150;2023-02-23T00:36:05;7.17;;;4.97;;
68583;SDS011;55557;49.220;11.150;2023-02-23T00:38:32;7.77;;;5.00;;
68583;SDS011;55557;49.220;11.150;2023-02-23T00:41:02;8.47;;;5.43;;
68583;SDS011;55557;49.220;11.150;2023-02-23T00:43:32;7.03;;;4.87;;
68583;SDS011;55557;49.220;11.150;2023-02-23T00:45:58;8.33;;;5.33;;
68583;SDS011;55557;49.220;11.150;2023-02-23T00:48:23;7.17;;;5.23;;
68583;SDS011;55557;49.220;11.150;2023-02-23T00:50:56;6.80;;;5.33;;
68583;SDS011;55557;49.220;11.150;2023-02-23T00:53:22;6.43;;;5.37;;
68583;SDS011;55557;49.220;11.150;2023-02-23T00:55:51;7.83;;;5.33;;
68583;SDS011;55557;49.220;11.150;2023-02-23T00:58:17;8.47;;;5.53;;
68583;SDS011;55557;49.220;11.150;2023-02-23T01:00:43;7.50;;;5.77;;
68583;SDS011;55557;49.220;11.150;2023-02-23T01:03:09;7.03;;;5.37;;
68583;SDS011;55557;49.220;11.150;2023-02-23T01:05:35;8.70;;;6.27;;
68583;SDS011;55557;49.220;11.150;2023-02-23T01:08:01;6.70;;;5.07;;
68583;SDS011;55557;49.220;11.150;2023-02-23T01:10:28;7.57;;;5.40;;
68583;SDS011;55557;49.220;11.150;2023-02-23T01:12:54;9.20;;;5.47;;
68583;SDS011;55557;49.220;11.150;2023-02-23T01:15:20;8.30;;;5.33;;
68583;SDS011;55557;49.220;11.150;2023-02-23T01:17:46;7.30;;;5.17;;
68583;SDS011;55557;49.220;11.150;2023-02-23T01:20:13;9.17;;;5.47;;
68583;SDS011;55557;49.220;11.150;2023-02-23T01:22:41;8.40;;;5.17;;
68583;SDS011;55557;49.220;11.150;2023-02-23T01:25:08;8.57;;;5.23;;
68583;SDS011;55557;49.220;11.150;2023-02-23T01:27:36;8.13;;;5.20;;
68583;SDS011;55557;49.220;11.150;2023-02-23T01:30:02;6.87;;;4.90;;
68583;SDS011;55557;49.220;11.150;2023-02-23T01:32:28;7.73;;;4.97;;
68583;SDS011;55557;49.220;11.150;2023-02-23T01:34:54;7.30;;;5.43;;
68583;SDS011;55557;49.220;11.150;2023-02-23T01:37:20;6.40;;;4.53;;
68583;SDS011;55557;49.220;11.150;2023-02-23T01:39:46;6.47;;;5.33;;
68583;SDS011;55557;49.220;11.150;2023-02-23T01:42:12;7.07;;;5.40;;
68583;SDS011;55557;49.220;11.150;2023-02-23T01:47:04;9.67;;;5.40;;
68583;SDS011;55557;49.220;11.150;2023-02-23T01:49:31;10.67;;;5.33;;
68583;SDS011;55557;49.220;11.150;2023-02-23T01:52:00;8.10;;;5.30;;
68583;SDS011;55557;49.220;11.150;2023-02-23T01:54:29;6.13;;;4.37;;
68583;SDS011;55557;49.220;11.150;2023-02-23T01:56:57;7.87;;;5.13;;
68583;SDS011;55557;49.220;11.150;2023-02-23T01:59:25;7.13;;;5.10;;
68583;SDS011;55557;49.220;11.150;2023-02-23T02:01:53;9.87;;;4.67;;
68583;SDS011;55557;49.220;11.150;2023-02-23T02:04:19;10.60;;;5.37;;
68583;SDS011;55557;49.220;11.150;2023-02-23T02:06:45;8.23;;;5.37;;
68583;SDS011;55557;49.220;11.150;2023-02-23T02:09:14;8.23;;;5.20;;
68583;SDS011;55557;49.220;11.150;2023-02-23T02:11:41;6.63;;;4.97;;
68583;SDS011;55557;49.220;11.150;2023-02-23T02:16:53;8.93;;;5.43;;
68583;SDS011;55557;49.220;11.150;2023-02-23T02:19:51;7.63;;;5.07;;
68583;SDS011;55557;49.220;11.150;2023-02-23T02:38:03;10.00;;;5.47;;
68583;SDS011;55557;49.220;11.150;2023-02-23T02:40:33;7.23;;;5.07;;
68583;SDS011;55557;49.220;11.150;2023-02-23T02:43:16;6.77;;;5.27;;
68583;SDS011;55557;49.220;11.150;2023-02-23T02:48:22;6.60;;;4.80;;
68583;SDS011;55557;49.220;11.150;2023-02-23T02:50:57;9.30;;;5.33;;
68583;SDS011;55557;49.220;11.150;2023-02-23T02:53:43;5.60;;;4.37;;
68583;SDS011;55557;49.220;11.150;2023-02-23T02:56:11;6.83;;;5.37;;
68583;SDS011;55557;49.220;11.150;2023-02-23T02:58:38;5.13;;;4.30;;
68583;SDS011;55557;49.220;11.150;2023-02-23T03:01:10;7.27;;;5.20;;
68583;SDS011;55557;49.220;11.150;2023-02-23T03:03:56;8.17;;;5.37;;
68583;SDS011;55557;49.220;11.150;2023-02-23T03:06:43;6.50;;;4.60;;
68583;SDS011;55557;49.220;11.150;2023-02-23T03:12:30;7.20;;;4.70;;
68583;SDS011;55557;49.220;11.150;2023-02-23T03:15:36;6.37;;;4.77;;
68583;SDS011;55557;49.220;11.150;2023-02-23T03:18:37;7.63;;;5.33;;
68583;SDS011;55557;49.220;11.150;2023-02-23T03:21:31;8.33;;;4.97;;
68583;SDS011;55557;49.220;11.150;2023-02-23T03:30:08;8.50;;;5.97;;
68583;SDS011;55557;49.220;11.150;2023-02-23T03:32:57;7.60;;;5.47;;
68583;SDS011;55557;49.220;11.150;2023-02-23T03:35:45;10.47;;;5.33;;
68583;SDS011;55557;49.220;11.150;2023-02-23T03:41:16;8.93;;;5.83;;
68583;SDS011;55557;49.220;11.150;2023-02-23T03:44:03;8.93;;;5.53;;
68583;SDS011;55557;49.220;11.150;2023-02-23T03:46:48;7.33;;;5.30;;
68583;SDS011;55557;49.220;11.150;2023-02-23T03:49:35;7.13;;;4.90;;
68583;SDS011;55557;49.220;11.150;2023-02-23T03:52:23;11.03;;;6.13;;
68583;SDS011;55557;49.220;11.150;2023-02-23T03:55:11;8.83;;;5.77;;
68583;SDS011;55557;49.220;11.150;2023-02-23T03:57:58;9.43;;;5.87;;
68583;SDS011;55557;49.220;11.150;2023-02-23T04:00:44;10.70;;;6.10;;
68583;SDS011;55557;49.220;11.150;2023-02-23T04:03:30;11.97;;;6.37;;
68583;SDS011;55557;49.220;11.150;2023-02-23T04:06:17;7.57;;;6.27;;
68583;SDS011;55557;49.220;11.150;2023-02-23T04:09:03;12.70;;;7.53;;
68583;SDS011;55557;49.220;11.150;2023-02-23T04:11:50;10.13;;;6.90;;
68583;SDS011;55557;49.220;11.150;2023-02-23T04:14:40;10.30;;;7.50;;
68583;SDS011;55557;49.220;11.150;2023-02-23T04:17:08;11.90;;;5.60;;
68583;SDS011;55557;49.220;11.150;2023-02-23T04:19:34;8.93;;;6.50;;
68583;SDS011;55557;49.220;11.150;2023-02-23T04:22:00;9.23;;;6.80;;
68583;SDS011;55557;49.220;11.150;2023-02-23T04:24:26;9.50;;;6.87;;
68583;SDS011;55557;49.220;11.150;2023-02-23T04:26:52;9.30;;;6.67;;
68583;SDS011;55557;49.220;11.150;2023-02-23T04:29:18;13.03;;;6.90;;
68583;SDS011;55557;49.220;11.150;2023-02-23T04:31:44;11.47;;;6.73;;
68583;SDS011;55557;49.220;11.150;2023-02-23T04:34:10;9.23;;;6.97;;
68583;SDS011;55557;49.220;11.150;2023-02-23T04:36:36;10.63;;;7.67;;
68583;SDS011;55557;49.220;11.150;2023-02-23T04:39:02;12.43;;;7.57;;
68583;SDS011;55557;49.220;11.150;2023-02-23T04:41:28;9.87;;;6.87;;
68583;SDS011;55557;49.220;11.150;2023-02-23T04:43:54;20.90;;;7.13;;
68583;SDS011;55557;49.220;11.150;2023-02-23T04:46:20;18.17;;;7.50;;
68583;SDS011;55557;49.220;11.150;2023-02-23T04:48:46;10.40;;;7.50;;
68583;SDS011;55557;49.220;11.150;2023-02-23T04:51:11;13.37;;;8.27;;
68583;SDS011;55557;49.220;11.150;2023-02-23T04:53:37;15.77;;;8.50;;
68583;SDS011;55557;49.220;11.150;2023-02-23T04:56:03;13.23;;;8.07;;
68583;SDS011;55557;49.220;11.150;2023-02-23T04:58:42;14.70;;;8.43;;
68583;SDS011;55557;49.220;11.150;2023-02-23T05:01:08;10.93;;;8.23;;
68583;SDS011;55557;49.220;11.150;2023-02-23T05:03:34;17.53;;;8.57;;
68583;SDS011;55557;49.220;11.150;2023-02-23T05:06:00;15.50;;;8.60;;
68583;SDS011;55557;49.220;11.150;2023-02-23T05:08:26;15.10;;;8.57;;
68583;SDS011;55557;49.220;11.150;2023-02-23T05:10:52;19.53;;;8.23;;
68583;SDS011;55557;49.220;11.150;2023-02-23T05:13:18;19.00;;;8.03;;
68583;SDS011;55557;49.220;11.150;2023-02-23T05:15:44;13.30;;;8.63;;
68583;SDS011;55557;49.220;11.150;2023-02-23T05:18:10;16.57;;;8.97;;
68583;SDS011;55557;49.220;11.150;2023-02-23T05:20:36;15.67;;;8.43;;
68583;SDS011;55557;49.220;11.150;2023-02-23T05:23:02;11.60;;;7.83;;
68583;SDS011;55557;49.220;11.150;2023-02-23T05:25:29;16.17;;;7.87;;
68583;SDS011;55557;49.220;11.150;2023-02-23T05:27:55;15.77;;;9.17;;
68583;SDS011;55557;49.220;11.150;2023-02-23T05:30:22;13.50;;;8.00;;
68583;SDS011;55557;49.220;11.150;2023-02-23T05:32:49;16.03;;;8.17;;
68583;SDS011;55557;49.220;11.150;2023-02-23T05:35:15;11.20;;;7.93;;
68583;SDS011;55557;49.220;11.150;2023-02-23T05:37:41;11.10;;;7.20;;
68583;SDS011;55557;49.220;11.150;2023-02-23T05:40:08;10.87;;;7.47;;
68583;SDS011;55557;49.220;11.150;2023-02-23T05:42:34;12.10;;;7.17;;
68583;SDS011;55557;49.220;11.150;2023-02-23T05:45:02;12.60;;;7.50;;
68583;SDS011;55557;49.220;11.150;2023-02-23T05:47:29;11.83;;;7.60;;
68583;SDS011;55557;49.220;11.150;2023-02-23T05:50:02;12.63;;;7.47;;
68583;SDS011;55557;49.220;11.150;2023-02-23T05:52:28;11.20;;;7.13;;
68583;SDS011;55557;49.220;11.150;2023-02-23T05:54:54;10.87;;;6.93;;
68583;SDS011;55557;49.220;11.150;2023-02-23T05:57:20;11.23;;;6.77;;
68583;SDS011;55557;49.220;11.150;2023-02-23T05:59:46;10.93;;;7.07;;
68583;SDS011;55557;49.220;11.150;2023-02-23T06:02:12;14.40;;;8.10;;
68583;SDS011;55557;49.220;11.150;2023-02-23T06:04:38;13.07;;;7.73;;
68583;SDS011;55557;49.220;11.150;2023-02-23T06:07:04;13.70;;;8.03;;
68583;SDS011;55557;49.220;11.150;2023-02-23T06:09:30;17.07;;;8.57;;
68583;SDS011;55557;49.220;11.150;2023-02-23T06:11:56;15.33;;;8.77;;
68583;SDS011;55557;49.220;11.150;2023-02-23T06:14:24;11.10;;;8.00;;
68583;SDS011;55557;49.220;11.150;2023-02-23T06:16:50;13.90;;;8.67;;
68583;SDS011;55557;49.220;11.150;2023-02-23T06:19:16;13.60;;;8.67;;
68583;SDS011;55557;49.220;11.150;2023-02-23T06:21:42;14.90;;;8.43;;
68583;SDS011;55557;49.220;11.150;2023-02-23T06:24:08;14.00;;;8.07;;
68583;SDS011;55557;49.220;11.150;2023-02-23T06:26:36;11.40;;;8.03;;
68583;SDS011;55557;49.220;11.150;2023-02-23T06:29:02;14.27;;;8.50;;
68583;SDS011;55557;49.220;11.150;2023-02-23T06:31:28;11.57;;;7.23;;
68583;SDS011;55557;49.220;11.150;2023-02-23T06:33:54;12.30;;;8.07;;
68583;SDS011;55557;49.220;11.150;2023-02-23T06:36:20;12.33;;;8.23;;
68583;SDS011;55557;49.220;11.150;2023-02-23T06:38:46;21.57;;;11.50;;
68583;SDS011;55557;49.220;11.150;2023-02-23T06:41:12;21.93;;;11.27;;
68583;SDS011;55557;49.220;11.150;2023-02-23T06:43:38;16.90;;;10.17;;
68583;SDS011;55557;49.220;11.150;2023-02-23T06:46:05;17.30;;;10.63;;
68583;SDS011;55557;49.220;11.150;2023-02-23T06:48:31;24.50;;;13.80;;
68583;SDS011;55557;49.220;11.150;2023-02-23T06:50:58;20.63;;;11.73;;
68583;SDS011;55557;49.220;11.150;2023-02-23T06:53:24;19.77;;;11.40;;
68583;SDS011;55557;49.220;11.150;2023-02-23T06:55:50;13.80;;;9.47;;
68583;SDS011;55557;49.220;11.150;2023-02-23T06:58:16;24.03;;;13.17;;
68583;SDS011;55557;49.220;11.150;2023-02-23T07:00:42;30.87;;;14.43;;
68583;SDS011;55557;49.220;11.150;2023-02-23T07:03:08;21.73;;;12.87;;
68583;SDS011;55557;49.220;11.150;2023-02-23T07:05:35;21.20;;;11.90;;
68583;SDS011;55557;49.220;11.150;2023-02-23T07:08:01;15.03;;;9.10;;
68583;SDS011;55557;49.220;11.150;2023-02-23T07:10:27;11.03;;;7.97;;
68583;SDS011;55557;49.220;11.150;2023-02-23T07:12:53;11.27;;;8.27;;
68583;SDS011;55557;49.220;11.150;2023-02-23T07:15:20;10.20;;;7.50;;
68583;SDS011;55557;49.220;11.150;2023-02-23T07:17:46;12.20;;;8.33;;
68583;SDS011;55557;49.220;11.150;2023-02-23T07:20:13;14.73;;;8.37;;
68583;SDS011;55557;49.220;11.150;2023-02-23T07:22:40;13.27;;;9.23;;
68583;SDS011;55557;49.220;11.150;2023-02-23T07:25:06;13.63;;;9.40;;
68583;SDS011;55557;49.220;11.150;2023-02-23T07:27:33;15.37;;;10.30;;
68583;SDS011;55557;49.220;11.150;2023-02-23T07:29:59;15.77;;;10.87;;
68583;SDS011;55557;49.220;11.150;2023-02-23T07:32:27;13.70;;;9.83;;
68583;SDS011;55557;49.220;11.150;2023-02-23T07:34:53;12.00;;;8.20;;
68583;SDS011;55557;49.220;11.150;2023-02-23T07:37:19;12.60;;;7.47;;
68583;SDS011;55557;49.220;11.150;2023-02-23T07:39:45;14.90;;;8.67;;
68583;SDS011;55557;49.220;11.150;2023-02-23T07:42:12;11.07;;;7.57;;
68583;SDS011;55557;49.220;11.150;2023-02-23T07:44:38;12.60;;;7.43;;
68583;SDS011;55557;49.220;11.150;2023-02-23T07:47:04;9.73;;;6.60;;
68583;SDS011;55557;49.220;11.150;2023-02-23T07:49:30;13.10;;;8.00;;
68583;SDS011;55557;49.220;11.150;2023-02-23T07:51:57;11.23;;;7.17;;
68583;SDS011;55557;49.220;11.150;2023-02-23T07:54:23;13.40;;;7.43;;
68583;SDS011;55557;49.220;11.150;2023-02-23T07:56:50;13.47;;;8.23;;
68583;SDS011;55557;49.220;11.150;2023-02-23T07:59:16;22.40;;;14.37;;
68583;SDS011;55557;49.220;11.150;2023-02-23T08:01:42;24.40;;;16.23;;
68583;SDS011;55557;49.220;11.150;2023-02-23T08:04:08;17.15;;;12.10;;
68583;SDS011;55557;49.220;11.150;2023-02-23T08:06:34;11.63;;;8.80;;
68583;SDS011;55557;49.220;11.150;2023-02-23T08:09:01;14.93;;;9.10;;
68583;SDS011;55557;49.220;11.150;2023-02-23T08:11:27;17.00;;;10.87;;
68583;SDS011;55557;49.220;11.150;2023-02-23T08:13:53;16.60;;;12.13;;
68583;SDS011;55557;49.220;11.150;2023-02-23T08:16:24;18.23;;;10.50;;
68583;SDS011;55557;49.220;11.150;2023-02-23T08:18:50;14.33;;;10.13;;
68583;SDS011;55557;49.220;11.150;2023-02-23T08:21:16;13.87;;;8.97;;
68583;SDS011;55557;49.220;11.150;2023-02-23T08:23:42;14.17;;;8.73;;
68583;SDS011;55557;49.220;11.150;2023-02-23T08:26:08;19.90;;;9.40;;
68583;SDS011;55557;49.220;11.150;2023-02-23T08:28:35;14.43;;;9.80;;
68583;SDS011;55557;49.220;11.150;2023-02-23T08:31:01;16.30;;;10.17;;
68583;SDS011;55557;49.220;11.150;2023-02-23T08:33:27;20.47;;;10.73;;
68583;SDS011;55557;49.220;11.150;2023-02-23T08:35:57;18.77;;;11.60;;
68583;SDS011;55557;49.220;11.150;2023-02-23T08:38:23;22.70;;;13.93;;
68583;SDS011;55557;49.220;11.150;2023-02-23T08:40:49;22.90;;;14.83;;
68583;SDS011;55557;49.220;11.150;2023-02-23T08:43:15;27.03;;;15.03;;
68583;SDS011;55557;49.220;11.150;2023-02-23T08:45:41;29.50;;;16.67;;
68583;SDS011;55557;49.220;11.150;2023-02-23T08:48:07;28.67;;;16.63;;
68583;SDS011;55557;49.220;11.150;2023-02-23T08:50:33;27.83;;;15.67;;
68583;SDS011;55557;49.220;11.150;2023-02-23T08:52:59;26.13;;;17.20;;
68583;SDS011;55557;49.220;11.150;2023-02-23T08:55:25;32.27;;;17.33;;
68583;SDS011;55557;49.220;11.150;2023-02-23T08:57:51;26.80;;;16.23;;
68583;SDS011;55557;49.220;11.150;2023-02-23T09:00:17;26.97;;;15.87;;
68583;SDS011;55557;49.220;11.150;2023-02-23T09:02:44;25.73;;;14.77;;
68583;SDS011;55557;49.220;11.150;2023-02-23T09:05:12;27.80;;;16.00;;
68583;SDS011;55557;49.220;11.150;2023-02-23T09:07:38;27.23;;;16.10;;
68583;SDS011;55557;49.220;11.150;2023-02-23T09:10:06;31.23;;;17.87;;
68583;SDS011;55557;49.220;11.150;2023-02-23T09:12:32;30.33;;;18.87;;
68583;SDS011;55557;49.220;11.150;2023-02-23T09:14:58;33.73;;;18.73;;
68583;SDS011;55557;49.220;11.150;2023-02-23T09:17:24;34.70;;;19.77;;
68583;SDS011;55557;49.220;11.150;2023-02-23T09:19:50;35.33;;;20.07;;
68583;SDS011;55557;49.220;11.150;2023-02-23T09:22:16;38.30;;;19.93;;
68583;SDS011;55557;49.220;11.150;2023-02-23T09:24:43;35.57;;;19.70;;
68583;SDS011;55557;49.220;11.150;2023-02-23T09:27:09;36.53;;;20.73;;
68583;SDS011;55557;49.220;11.150;2023-02-23T09:29:38;37.40;;;21.50;;
68583;SDS011;55557;49.220;11.150;2023-02-23T09:32:08;33.17;;;20.33;;
68583;SDS011;55557;49.220;11.150;2023-02-23T09:34:34;32.67;;;20.03;;
68583;SDS011;55557;49.220;11.150;2023-02-23T09:37:01;36.63;;;19.63;;
68583;SDS011;55557;49.220;11.150;2023-02-23T09:39:27;33.40;;;19.33;;
68583;SDS011;55557;49.220;11.150;2023-02-23T09:42:14;30.37;;;19.33;;
68583;SDS011;55557;49.220;11.150;2023-02-23T09:49:53;38.57;;;21.30;;
68583;SDS011;55557;49.220;11.150;2023-02-23T09:52:21;43.13;;;21.83;;
68583;SDS011;55557;49.220;11.150;2023-02-23T09:54:48;37.47;;;20.97;;
68583;SDS011;55557;49.220;11.150;2023-02-23T09:57:19;36.30;;;20.27;;
68583;SDS011;55557;49.220;11.150;2023-02-23T09:59:48;38.90;;;21.50;;
68583;SDS011;55557;49.220;11.150;2023-02-23T10:02:22;35.67;;;19.93;;
68583;SDS011;55557;49.220;11.150;2023-02-23T10:04:49;32.93;;;20.37;;
68583;SDS011;55557;49.220;11.150;2023-02-23T10:09:49;39.80;;;21.10;;
68583;SDS011;55557;49.220;11.150;2023-02-23T10:15:12;32.73;;;19.90;;
68583;SDS011;55557;49.220;11.150;2023-02-23T10:22:44;36.90;;;19.80;;
68583;SDS011;55557;49.220;11.150;2023-02-23T10:25:13;33.43;;;21.20;;
68583;SDS011;55557;49.220;11.150;2023-02-23T10:27:43;33.47;;;20.17;;
68583;SDS011;55557;49.220;11.150;2023-02-23T10:30:17;40.27;;;21.93;;
68583;SDS011;55557;49.220;11.150;2023-02-23T10:35:22;36.03;;;21.37;;
68583;SDS011;55557;49.220;11.150;2023-02-23T10:37:49;34.50;;;19.93;;
68583;SDS011;55557;49.220;11.150;2023-02-23T10:40:17;36.73;;;20.60;;
68583;SDS011;55557;49.220;11.150;2023-02-23T10:42:45;37.33;;;19.77;;
68583;SDS011;55557;49.220;11.150;2023-02-23T10:45:12;35.13;;;20.23;;
68583;SDS011;55557;49.220;11.150;2023-02-23T10:47:42;38.50;;;21.60;;
68583;SDS011;55557;49.220;11.150;2023-02-23T10:50:10;38.47;;;21.50;;
68583;SDS011;55557;49.220;11.150;2023-02-23T10:52:39;37.37;;;20.60;;
68583;SDS011;55557;49.220;11.150;2023-02-23T10:55:06;35.30;;;19.30;;
68583;SDS011;55557;49.220;11.150;2023-02-23T10:57:34;31.30;;;18.83;;
68583;SDS011;55557;49.220;11.150;2023-02-23T11:02:44;32.73;;;18.80;;
68583;SDS011;55557;49.220;11.150;2023-02-23T11:08:10;33.30;;;17.27;;
68583;SDS011;55557;49.220;11.150;2023-02-23T11:10:36;29.70;;;17.20;;
68583;SDS011;55557;49.220;11.150;2023-02-23T11:13:03;36.03;;;18.93;;
68583;SDS011;55557;49.220;11.150;2023-02-23T11:15:30;29.80;;;16.20;;
68583;SDS011;55557;49.220;11.150;2023-02-23T11:17:58;29.70;;;16.17;;
68583;SDS011;55557;49.220;11.150;2023-02-23T11:20:30;28.57;;;16.00;;
68583;SDS011;55557;49.220;11.150;2023-02-23T11:22:59;32.43;;;17.37;;
68583;SDS011;55557;49.220;11.150;2023-02-23T11:25:29;30.83;;;15.47;;
68583;SDS011;55557;49.220;11.150;2023-02-23T11:27:56;29.67;;;15.67;;
68583;SDS011;55557;49.220;11.150;2023-02-23T11:30:24;26.83;;;14.07;;
68583;SDS011;55557;49.220;11.150;2023-02-23T11:32:54;25.10;;;13.43;;
68583;SDS011;55557;49.220;11.150;2023-02-23T11:37:47;27.87;;;14.27;;
68583;SDS011;55557;49.220;11.150;2023-02-23T11:42:50;25.47;;;13.43;;
68583;SDS011;55557;49.220;11.150;2023-02-23T11:45:17;29.63;;;13.30;;
68583;SDS011;55557;49.220;11.150;2023-02-23T11:47:50;24.73;;;13.47;;
68583;SDS011;55557;49.220;11.150;2023-02-23T11:50:24;22.67;;;13.57;;
68583;SDS011;55557;49.220;11.150;2023-02-23T11:52:55;25.10;;;14.13;;
68583;SDS011;55557;49.220;11.150;2023-02-23T11:55:22;24.13;;;13.57;;
68583;SDS011;55557;49.220;11.150;2023-02-23T11:57:49;25.17;;;13.70;;
68583;SDS011;55557;49.220;11.150;2023-02-23T12:00:21;27.30;;;12.70;;
68583;SDS011;55557;49.220;11.150;2023-02-23T12:02:49;23.93;;;13.40;;
68583;SDS011;55557;49.220;11.150;2023-02-23T12:05:19;22.80;;;13.27;;
68583;SDS011;55557;49.220;11.150;2023-02-23T12:07:50;20.27;;;12.50;;
68583;SDS011;55557;49.220;11.150;2023-02-23T12:10:20;19.90;;;12.80;;
68583;SDS011;55557;49.220;11.150;2023-02-23T12:17:59;23.20;;;12.97;;
68583;SDS011;55557;49.220;11.150;2023-02-23T12:20:29;23.70;;;12.70;;
68583;SDS011;55557;49.220;11.150;2023-02-23T12:23:01;25.50;;;13.13;;
68583;SDS011;55557;49.220;11.150;2023-02-23T12:25:32;23.70;;;12.73;;
68583;SDS011;55557;49.220;11.150;2023-02-23T12:33:12;19.97;;;10.60;;
68583;SDS011;55557;49.220;11.150;2023-02-23T12:35:42;19.23;;;10.27;;
68583;SDS011;55557;49.220;11.150;2023-02-23T12:40:36;16.93;;;9.87;;
68583;SDS011;55557;49.220;11.150;2023-02-23T12:43:19;16.30;;;9.97;;
68583;SDS011;55557;49.220;11.150;2023-02-23T12:45:49;16.17;;;9.03;;
68583;SDS011;55557;49.220;11.150;2023-02-23T12:48:30;15.30;;;9.60;;
68583;SDS011;55557;49.220;11.150;2023-02-23T12:50:59;16.33;;;9.63;;
68583;SDS011;55557;49.220;11.150;2023-02-23T12:53:39;14.83;;;9.30;;
68583;SDS011;55557;49.220;11.150;2023-02-23T12:56:10;15.50;;;10.07;;
68583;SDS011;55557;49.220;11.150;2023-02-23T13:01:10;16.87;;;8.93;;
68583;SDS011;55557;49.220;11.150;2023-02-23T13:03:45;15.97;;;10.07;;
68583;SDS011;55557;49.220;11.150;2023-02-23T13:09:02;17.50;;;10.57;;
68583;SDS011;55557;49.220;11.150;2023-02-23T13:14:19;18.40;;;9.50;;
68583;SDS011;55557;49.220;11.150;2023-02-23T13:19:40;21.93;;;11.07;;
68583;SDS011;55557;49.220;11.150;2023-02-23T13:24:42;19.10;;;11.53;;
68583;SDS011;55557;49.220;11.150;2023-02-23T13:27:26;19.13;;;11.00;;
68583;SDS011;55557;49.220;11.150;2023-02-23T13:29:55;16.87;;;9.90;;
68583;SDS011;55557;49.220;11.150;2023-02-23T13:32:28;19.30;;;11.27;;
68583;SDS011;55557;49.220;11.150;2023-02-23T13:37:41;20.40;;;12.53;;
68583;SDS011;55557;49.220;11.150;2023-02-23T13:43:08;20.27;;;11.87;;
68583;SDS011;55557;49.220;11.150;2023-02-23T13:53:43;22.60;;;11.60;;
68583;SDS011;55557;49.220;11.150;2023-02-23T13:59:02;18.33;;;10.70;;
68583;SDS011;55557;49.220;11.150;2023-02-23T14:01:34;21.23;;;11.73;;
68583;SDS011;55557;49.220;11.150;2023-02-23T14:04:02;19.00;;;11.33;;
68583;SDS011;55557;49.220;11.150;2023-02-23T14:06:30;19.27;;;11.93;;
68583;SDS011;55557;49.220;11.150;2023-02-23T14:08:57;17.50;;;11.40;;
68583;SDS011;55557;49.220;11.150;2023-02-23T14:11:36;19.83;;;11.43;;
68583;SDS011;55557;49.220;11.150;2023-02-23T14:14:03;17.40;;;11.63;;
68583;SDS011;55557;49.220;11.150;2023-02-23T14:16:29;19.63;;;10.73;;
68583;SDS011;55557;49.220;11.150;2023-02-23T14:19:04;18.17;;;11.50;;
68583;SDS011;55557;49.220;11.150;2023-02-23T14:26:39;17.07;;;11.10;;
68583;SDS011;55557;49.220;11.150;2023-02-23T14:31:35;17.80;;;10.63;;
68583;SDS011;55557;49.220;11.150;2023-02-23T14:34:11;18.40;;;11.63;;
68583;SDS011;55557;49.220;11.150;2023-02-23T14:36:41;21.27;;;11.83;;
68583;SDS011;55557;49.220;11.150;2023-02-23T14:39:12;19.97;;;10.90;;
68583;SDS011;55557;49.220;11.150;2023-02-23T14:41:51;22.67;;;10.93;;
68583;SDS011;55557;49.220;11.150;2023-02-23T14:44:31;20.63;;;12.53;;
68583;SDS011;55557;49.220;11.150;2023-02-23T14:47:01;17.90;;;10.20;;
68583;SDS011;55557;49.220;11.150;2023-02-23T14:49:30;17.57;;;10.07;;
68583;SDS011;55557;49.220;11.150;2023-02-23T14:52:00;16.80;;;10.07;;
68583;SDS011;55557;49.220;11.150;2023-02-23T14:54:33;19.00;;;9.53;;
68583;SDS011;55557;49.220;11.150;2023-02-23T14:57:01;18.30;;;9.57;;
68583;SDS011;55557;49.220;11.150;2023-02-23T14:59:28;14.17;;;9.30;;
68583;SDS011;55557;49.220;11.150;2023-02-23T15:02:00;14.80;;;9.13;;
68583;SDS011;55557;49.220;11.150;2023-02-23T15:04:27;15.23;;;9.43;;
68583;SDS011;55557;49.220;11.150;2023-02-23T15:06:56;13.87;;;7.90;;
68583;SDS011;55557;49.220;11.150;2023-02-23T15:11:56;13.37;;;8.73;;
68583;SDS011;55557;49.220;11.150;2023-02-23T15:14:23;16.70;;;9.60;;
68583;SDS011;55557;49.220;11.150;2023-02-23T15:16:49;13.83;;;8.80;;
68583;SDS011;55557;49.220;11.150;2023-02-23T15:22:28;16.60;;;9.10;;
68583;SDS011;55557;49.220;11.150;2023-02-23T15:24:56;14.40;;;9.40;;
68583;SDS011;55557;49.220;11.150;2023-02-23T15:27:28;13.27;;;8.70;;
68583;SDS011;55557;49.220;11.150;2023-02-23T15:29:54;17.63;;;9.00;;
68583;SDS011;55557;49.220;11.150;2023-02-23T15:32:21;14.20;;;9.43;;
68583;SDS011;55557;49.220;11.150;2023-02-23T15:34:49;15.10;;;8.57;;
68583;SDS011;55557;49.220;11.150;2023-02-23T15:37:38;15.83;;;8.97;;
68583;SDS011;55557;49.220;11.150;2023-02-23T15:40:03;15.97;;;8.00;;
68583;SDS011;55557;49.220;11.150;2023-02-23T15:42:40;16.13;;;8.40;;
68583;SDS011;55557;49.220;11.150;2023-02-23T15:45:42;14.40;;;9.33;;
68583;SDS011;55557;49.220;11.150;2023-02-23T15:48:04;16.57;;;8.70;;
68583;SDS011;55557;49.220;11.150;2023-02-23T15:50:32;13.87;;;9.03;;
68583;SDS011;55557;49.220;11.150;2023-02-23T15:53:16;17.73;;;8.73;;
68583;SDS011;55557;49.220;11.150;2023-02-23T15:55:46;16.67;;;8.43;;
68583;SDS011;55557;49.220;11.150;2023-02-23T15:58:17;14.03;;;8.20;;
68583;SDS011;55557;49.220;11.150;2023-02-23T16:00:48;15.40;;;8.60;;
68583;SDS011;55557;49.220;11.150;2023-02-23T16:03:27;14.57;;;8.33;;
68583;SDS011;55557;49.220;11.150;2023-02-23T16:06:18;12.00;;;7.47;;
68583;SDS011;55557;49.220;11.150;2023-02-23T16:08:54;11.77;;;7.80;;
68583;SDS011;55557;49.220;11.150;2023-02-23T16:11:20;15.23;;;9.00;;
68583;SDS011;55557;49.220;11.150;2023-02-23T16:13:46;13.70;;;8.97;;
68583;SDS011;55557;49.220;11.150;2023-02-23T16:16:14;13.50;;;8.53;;
68583;SDS011;55557;49.220;11.150;2023-02-23T16:18:44;15.67;;;8.50;;
68583;SDS011;55557;49.220;11.150;2023-02-23T16:21:16;16.93;;;7.73;;
68583;SDS011;55557;49.220;11.150;2023-02-23T16:23:46;11.50;;;7.37;;
68583;SDS011;55557;49.220;11.150;2023-02-23T16:26:17;11.67;;;7.73;;
68583;SDS011;55557;49.220;11.150;2023-02-23T16:28:44;16.50;;;8.37;;
68583;SDS011;55557;49.220;11.150;2023-02-23T16:31:10;11.50;;;7.70;;
68583;SDS011;55557;49.220;11.150;2023-02-23T16:36:21;11.40;;;6.90;;